sensor_id;sensor_type;location;lat;lon;timestamp;P1;durP1;ratioP1;P2;durP2;ratioP2
72720;SDS011;60835;50.974;10.322;2022-11-20T00:01:29;24.88;;;9.95;;
72720;SDS011;60835;50.974;10.322;2022-11-20T00:03:56;20.63;;;8.82;;
72720;SDS011;60835;50.974;10.322;2022-11-20T00:06:24;20.02;;;8.63;;
72720;SDS011;60835;50.974;10.322;2022-11-20T00:08:53;19.50;;;9.13;;
72720;SDS011;60835;50.974;10.322;2022-11-20T00:11:22;17.77;;;8.25;;
72720;SDS011;60835;50.974;10.322;2022-11-20T00:13:52;18.08;;;7.75;;
72720;SDS011;60835;50.974;10.322;2022-11-20T00:16:21;22.88;;;8.77;;
72720;SDS011;60835;50.974;10.322;2022-11-20T00:18:49;19.55;;;7.90;;
72720;SDS011;60835;50.974;10.322;2022-11-20T00:21:20;19.48;;;8.15;;
72720;SDS011;60835;50.974;10.322;2022-11-20T00:23:49;22.80;;;8.63;;
72720;SDS011;60835;50.974;10.322;2022-11-20T00:26:20;22.40;;;9.45;;
72720;SDS011;60835;50.974;10.322;2022-11-20T00:28:49;20.33;;;8.57;;
72720;SDS011;60835;50.974;10.322;2022-11-20T00:31:20;23.35;;;10.00;;
72720;SDS011;60835;50.974;10.322;2022-11-20T00:33:48;20.30;;;8.68;;
72720;SDS011;60835;50.974;10.322;2022-11-20T00:36:17;23.88;;;9.55;;
72720;SDS011;60835;50.974;10.322;2022-11-20T00:38:46;25.95;;;10.27;;
72720;SDS011;60835;50.974;10.322;2022-11-20T00:41:17;24.38;;;10.82;;
72720;SDS011;60835;50.974;10.322;2022-11-20T00:43:44;23.27;;;11.27;;
72720;SDS011;60835;50.974;10.322;2022-11-20T00:46:14;32.38;;;13.52;;
72720;SDS011;60835;50.974;10.322;2022-11-20T00:51:11;24.52;;;10.07;;
72720;SDS011;60835;50.974;10.322;2022-11-20T00:53:39;27.20;;;10.55;;
72720;SDS011;60835;50.974;10.322;2022-11-20T00:56:06;24.83;;;10.88;;
72720;SDS011;60835;50.974;10.322;2022-11-20T00:58:36;26.23;;;11.32;;
72720;SDS011;60835;50.974;10.322;2022-11-20T01:01:05;28.98;;;12.13;;
72720;SDS011;60835;50.974;10.322;2022-11-20T01:03:47;29.35;;;12.68;;
72720;SDS011;60835;50.974;10.322;2022-11-20T01:06:16;27.40;;;12.65;;
72720;SDS011;60835;50.974;10.322;2022-11-20T01:08:43;29.98;;;13.40;;
72720;SDS011;60835;50.974;10.322;2022-11-20T01:11:11;31.20;;;13.00;;
72720;SDS011;60835;50.974;10.322;2022-11-20T01:13:40;27.80;;;12.30;;
72720;SDS011;60835;50.974;10.322;2022-11-20T01:16:12;32.97;;;14.60;;
72720;SDS011;60835;50.974;10.322;2022-11-20T01:18:45;34.92;;;14.35;;
72720;SDS011;60835;50.974;10.322;2022-11-20T01:21:15;37.75;;;15.82;;
72720;SDS011;60835;50.974;10.322;2022-11-20T01:23:43;36.45;;;15.52;;
72720;SDS011;60835;50.974;10.322;2022-11-20T01:26:18;34.38;;;14.98;;
72720;SDS011;60835;50.974;10.322;2022-11-20T01:28:46;36.97;;;15.55;;
72720;SDS011;60835;50.974;10.322;2022-11-20T01:31:20;34.70;;;15.45;;
72720;SDS011;60835;50.974;10.322;2022-11-20T01:33:50;36.58;;;15.57;;
72720;SDS011;60835;50.974;10.322;2022-11-20T01:36:20;34.17;;;15.10;;
72720;SDS011;60835;50.974;10.322;2022-11-20T01:38:51;35.08;;;14.05;;
72720;SDS011;60835;50.974;10.322;2022-11-20T01:41:20;32.08;;;13.75;;
72720;SDS011;60835;50.974;10.322;2022-11-20T01:44:06;31.25;;;13.38;;
72720;SDS011;60835;50.974;10.322;2022-11-20T01:46:35;29.98;;;13.43;;
72720;SDS011;60835;50.974;10.322;2022-11-20T01:49:50;32.35;;;14.32;;
72720;SDS011;60835;50.974;10.322;2022-11-20T01:51:58;29.52;;;13.07;;
72720;SDS011;60835;50.974;10.322;2022-11-20T01:54:41;27.67;;;13.02;;
72720;SDS011;60835;50.974;10.322;2022-11-20T01:57:13;28.33;;;12.52;;
72720;SDS011;60835;50.974;10.322;2022-11-20T01:59:44;31.55;;;14.57;;
72720;SDS011;60835;50.974;10.322;2022-11-20T02:02:14;35.83;;;13.93;;
72720;SDS011;60835;50.974;10.322;2022-11-20T02:04:41;28.50;;;13.13;;
72720;SDS011;60835;50.974;10.322;2022-11-20T02:07:09;32.80;;;13.57;;
72720;SDS011;60835;50.974;10.322;2022-11-20T02:09:36;30.23;;;13.18;;
72720;SDS011;60835;50.974;10.322;2022-11-20T02:12:03;30.05;;;12.80;;
72720;SDS011;60835;50.974;10.322;2022-11-20T02:14:30;32.47;;;13.27;;
72720;SDS011;60835;50.974;10.322;2022-11-20T02:16:57;30.77;;;13.52;;
72720;SDS011;60835;50.974;10.322;2022-11-20T02:19:28;30.95;;;13.30;;
72720;SDS011;60835;50.974;10.322;2022-11-20T02:22:00;29.75;;;13.50;;
72720;SDS011;60835;50.974;10.322;2022-11-20T02:24:39;34.78;;;14.35;;
72720;SDS011;60835;50.974;10.322;2022-11-20T02:27:09;31.85;;;13.30;;
72720;SDS011;60835;50.974;10.322;2022-11-20T02:29:40;31.60;;;13.50;;
72720;SDS011;60835;50.974;10.322;2022-11-20T02:32:19;31.00;;;13.60;;
72720;SDS011;60835;50.974;10.322;2022-11-20T02:34:47;29.92;;;13.80;;
72720;SDS011;60835;50.974;10.322;2022-11-20T02:37:16;27.65;;;12.43;;
72720;SDS011;60835;50.974;10.322;2022-11-20T02:39:44;32.25;;;13.63;;
72720;SDS011;60835;50.974;10.322;2022-11-20T02:42:13;29.98;;;13.90;;
72720;SDS011;60835;50.974;10.322;2022-11-20T02:44:40;34.65;;;14.18;;
72720;SDS011;60835;50.974;10.322;2022-11-20T02:47:07;33.53;;;14.05;;
72720;SDS011;60835;50.974;10.322;2022-11-20T02:49:33;32.13;;;13.45;;
72720;SDS011;60835;50.974;10.322;2022-11-20T02:52:00;28.92;;;12.85;;
72720;SDS011;60835;50.974;10.322;2022-11-20T02:54:27;32.60;;;14.35;;
72720;SDS011;60835;50.974;10.322;2022-11-20T02:56:53;36.50;;;15.13;;
72720;SDS011;60835;50.974;10.322;2022-11-20T02:59:20;34.97;;;14.20;;
72720;SDS011;60835;50.974;10.322;2022-11-20T03:01:47;34.13;;;15.48;;
72720;SDS011;60835;50.974;10.322;2022-11-20T03:04:14;32.83;;;15.10;;
72720;SDS011;60835;50.974;10.322;2022-11-20T03:06:40;41.25;;;17.13;;
72720;SDS011;60835;50.974;10.322;2022-11-20T03:09:07;35.42;;;15.77;;
72720;SDS011;60835;50.974;10.322;2022-11-20T03:11:33;33.97;;;15.30;;
72720;SDS011;60835;50.974;10.322;2022-11-20T03:14:04;33.85;;;15.50;;
72720;SDS011;60835;50.974;10.322;2022-11-20T03:16:31;35.05;;;16.42;;
72720;SDS011;60835;50.974;10.322;2022-11-20T03:18:59;33.58;;;15.63;;
72720;SDS011;60835;50.974;10.322;2022-11-20T03:21:26;38.03;;;15.80;;
72720;SDS011;60835;50.974;10.322;2022-11-20T03:23:53;34.88;;;15.98;;
72720;SDS011;60835;50.974;10.322;2022-11-20T03:26:21;38.00;;;15.80;;
72720;SDS011;60835;50.974;10.322;2022-11-20T03:28:50;33.40;;;15.45;;
72720;SDS011;60835;50.974;10.322;2022-11-20T03:31:20;39.75;;;16.17;;
72720;SDS011;60835;50.974;10.322;2022-11-20T03:33:55;35.72;;;15.27;;
72720;SDS011;60835;50.974;10.322;2022-11-20T03:36:23;35.67;;;15.30;;
72720;SDS011;60835;50.974;10.322;2022-11-20T03:38:50;31.70;;;14.60;;
72720;SDS011;60835;50.974;10.322;2022-11-20T03:41:18;33.92;;;15.80;;
72720;SDS011;60835;50.974;10.322;2022-11-20T03:43:50;33.13;;;15.05;;
72720;SDS011;60835;50.974;10.322;2022-11-20T03:46:21;32.50;;;14.40;;
72720;SDS011;60835;50.974;10.322;2022-11-20T03:48:51;34.08;;;15.52;;
72720;SDS011;60835;50.974;10.322;2022-11-20T03:51:25;30.80;;;14.55;;
72720;SDS011;60835;50.974;10.322;2022-11-20T03:53:53;37.45;;;17.23;;
72720;SDS011;60835;50.974;10.322;2022-11-20T03:56:23;30.60;;;14.07;;
72720;SDS011;60835;50.974;10.322;2022-11-20T03:58:51;29.05;;;13.88;;
72720;SDS011;60835;50.974;10.322;2022-11-20T04:01:20;31.65;;;14.10;;
72720;SDS011;60835;50.974;10.322;2022-11-20T04:03:49;30.15;;;13.90;;
72720;SDS011;60835;50.974;10.322;2022-11-20T04:06:19;33.30;;;13.85;;
72720;SDS011;60835;50.974;10.322;2022-11-20T04:08:47;29.55;;;13.23;;
72720;SDS011;60835;50.974;10.322;2022-11-20T04:11:26;32.20;;;14.32;;
72720;SDS011;60835;50.974;10.322;2022-11-20T04:13:59;31.27;;;15.27;;
72720;SDS011;60835;50.974;10.322;2022-11-20T04:16:35;31.08;;;14.45;;
72720;SDS011;60835;50.974;10.322;2022-11-20T04:19:03;26.95;;;14.07;;
72720;SDS011;60835;50.974;10.322;2022-11-20T04:21:31;38.38;;;15.57;;
72720;SDS011;60835;50.974;10.322;2022-11-20T04:23:58;32.83;;;15.32;;
72720;SDS011;60835;50.974;10.322;2022-11-20T04:26:25;33.63;;;14.90;;
72720;SDS011;60835;50.974;10.322;2022-11-20T04:28:53;35.88;;;15.77;;
72720;SDS011;60835;50.974;10.322;2022-11-20T04:31:22;36.15;;;14.30;;
72720;SDS011;60835;50.974;10.322;2022-11-20T04:33:54;38.42;;;16.90;;
72720;SDS011;60835;50.974;10.322;2022-11-20T04:36:22;36.53;;;16.00;;
72720;SDS011;60835;50.974;10.322;2022-11-20T04:38:53;38.22;;;15.35;;
72720;SDS011;60835;50.974;10.322;2022-11-20T04:41:23;37.53;;;14.77;;
72720;SDS011;60835;50.974;10.322;2022-11-20T04:43:53;34.67;;;16.17;;
72720;SDS011;60835;50.974;10.322;2022-11-20T04:46:26;37.90;;;16.50;;
72720;SDS011;60835;50.974;10.322;2022-11-20T04:48:53;37.80;;;14.88;;
72720;SDS011;60835;50.974;10.322;2022-11-20T04:51:20;38.83;;;15.68;;
72720;SDS011;60835;50.974;10.322;2022-11-20T04:53:46;40.38;;;15.80;;
72720;SDS011;60835;50.974;10.322;2022-11-20T04:56:14;40.20;;;16.23;;
72720;SDS011;60835;50.974;10.322;2022-11-20T04:58:43;38.88;;;17.63;;
72720;SDS011;60835;50.974;10.322;2022-11-20T05:01:11;39.97;;;17.75;;
72720;SDS011;60835;50.974;10.322;2022-11-20T05:03:41;43.53;;;18.25;;
72720;SDS011;60835;50.974;10.322;2022-11-20T05:06:10;48.08;;;19.35;;
72720;SDS011;60835;50.974;10.322;2022-11-20T05:08:38;48.75;;;19.67;;
72720;SDS011;60835;50.974;10.322;2022-11-20T05:11:09;47.45;;;19.70;;
72720;SDS011;60835;50.974;10.322;2022-11-20T05:13:43;51.30;;;21.15;;
72720;SDS011;60835;50.974;10.322;2022-11-20T05:16:12;49.78;;;21.73;;
72720;SDS011;60835;50.974;10.322;2022-11-20T05:18:40;48.80;;;20.45;;
72720;SDS011;60835;50.974;10.322;2022-11-20T05:21:08;42.05;;;18.17;;
72720;SDS011;60835;50.974;10.322;2022-11-20T05:23:36;46.15;;;19.00;;
72720;SDS011;60835;50.974;10.322;2022-11-20T05:26:03;41.97;;;17.60;;
72720;SDS011;60835;50.974;10.322;2022-11-20T05:28:30;46.85;;;18.25;;
72720;SDS011;60835;50.974;10.322;2022-11-20T05:31:08;43.90;;;18.73;;
72720;SDS011;60835;50.974;10.322;2022-11-20T05:33:39;41.53;;;18.42;;
72720;SDS011;60835;50.974;10.322;2022-11-20T05:36:07;40.85;;;16.45;;
72720;SDS011;60835;50.974;10.322;2022-11-20T05:38:34;43.03;;;17.63;;
72720;SDS011;60835;50.974;10.322;2022-11-20T05:41:10;39.78;;;17.55;;
72720;SDS011;60835;50.974;10.322;2022-11-20T05:43:39;40.83;;;17.63;;
72720;SDS011;60835;50.974;10.322;2022-11-20T05:46:08;39.47;;;17.25;;
72720;SDS011;60835;50.974;10.322;2022-11-20T05:48:36;42.67;;;19.50;;
72720;SDS011;60835;50.974;10.322;2022-11-20T05:51:04;40.72;;;19.65;;
72720;SDS011;60835;50.974;10.322;2022-11-20T05:53:33;39.88;;;17.17;;
72720;SDS011;60835;50.974;10.322;2022-11-20T05:56:01;46.50;;;17.73;;
72720;SDS011;60835;50.974;10.322;2022-11-20T05:58:33;38.83;;;17.15;;
72720;SDS011;60835;50.974;10.322;2022-11-20T06:01:04;39.40;;;16.80;;
72720;SDS011;60835;50.974;10.322;2022-11-20T06:03:31;42.35;;;18.20;;
72720;SDS011;60835;50.974;10.322;2022-11-20T06:06:00;40.55;;;17.67;;
72720;SDS011;60835;50.974;10.322;2022-11-20T06:08:27;34.72;;;16.67;;
72720;SDS011;60835;50.974;10.322;2022-11-20T06:10:54;40.42;;;17.73;;
72720;SDS011;60835;50.974;10.322;2022-11-20T06:13:21;38.15;;;16.60;;
72720;SDS011;60835;50.974;10.322;2022-11-20T06:15:51;43.08;;;18.00;;
72720;SDS011;60835;50.974;10.322;2022-11-20T06:18:19;38.97;;;17.50;;
72720;SDS011;60835;50.974;10.322;2022-11-20T06:20:46;38.88;;;16.73;;
72720;SDS011;60835;50.974;10.322;2022-11-20T06:23:12;40.75;;;17.98;;
72720;SDS011;60835;50.974;10.322;2022-11-20T06:25:39;36.15;;;15.88;;
72720;SDS011;60835;50.974;10.322;2022-11-20T06:28:07;37.17;;;15.95;;
72720;SDS011;60835;50.974;10.322;2022-11-20T06:30:33;37.70;;;15.57;;
72720;SDS011;60835;50.974;10.322;2022-11-20T06:33:01;37.28;;;16.63;;
72720;SDS011;60835;50.974;10.322;2022-11-20T06:35:28;37.83;;;17.42;;
72720;SDS011;60835;50.974;10.322;2022-11-20T06:37:55;36.33;;;15.63;;
72720;SDS011;60835;50.974;10.322;2022-11-20T06:40:22;44.88;;;20.58;;
72720;SDS011;60835;50.974;10.322;2022-11-20T06:42:48;38.65;;;18.00;;
72720;SDS011;60835;50.974;10.322;2022-11-20T06:45:15;40.08;;;17.88;;
72720;SDS011;60835;50.974;10.322;2022-11-20T06:47:41;36.67;;;15.73;;
72720;SDS011;60835;50.974;10.322;2022-11-20T06:50:08;35.15;;;15.43;;
72720;SDS011;60835;50.974;10.322;2022-11-20T06:52:34;34.63;;;15.60;;
72720;SDS011;60835;50.974;10.322;2022-11-20T06:55:08;37.60;;;17.73;;
72720;SDS011;60835;50.974;10.322;2022-11-20T06:57:34;33.85;;;16.13;;
72720;SDS011;60835;50.974;10.322;2022-11-20T07:00:01;33.50;;;15.43;;
72720;SDS011;60835;50.974;10.322;2022-11-20T07:02:28;37.92;;;17.20;;
72720;SDS011;60835;50.974;10.322;2022-11-20T07:04:54;38.92;;;16.77;;
72720;SDS011;60835;50.974;10.322;2022-11-20T07:07:21;41.63;;;16.75;;
72720;SDS011;60835;50.974;10.322;2022-11-20T07:09:48;30.23;;;14.70;;
72720;SDS011;60835;50.974;10.322;2022-11-20T07:12:14;37.22;;;15.90;;
72720;SDS011;60835;50.974;10.322;2022-11-20T07:14:41;34.40;;;15.10;;
72720;SDS011;60835;50.974;10.322;2022-11-20T07:17:07;36.78;;;16.00;;
72720;SDS011;60835;50.974;10.322;2022-11-20T07:19:35;46.83;;;20.95;;
72720;SDS011;60835;50.974;10.322;2022-11-20T07:22:02;34.90;;;15.40;;
72720;SDS011;60835;50.974;10.322;2022-11-20T07:24:28;45.25;;;19.48;;
72720;SDS011;60835;50.974;10.322;2022-11-20T07:26:55;34.03;;;16.42;;
72720;SDS011;60835;50.974;10.322;2022-11-20T07:29:24;43.63;;;17.95;;
72720;SDS011;60835;50.974;10.322;2022-11-20T07:31:50;41.05;;;17.27;;
72720;SDS011;60835;50.974;10.322;2022-11-20T07:34:19;38.58;;;17.33;;
72720;SDS011;60835;50.974;10.322;2022-11-20T07:36:46;39.50;;;15.45;;
72720;SDS011;60835;50.974;10.322;2022-11-20T07:39:12;39.80;;;16.98;;
72720;SDS011;60835;50.974;10.322;2022-11-20T07:41:39;33.05;;;15.15;;
72720;SDS011;60835;50.974;10.322;2022-11-20T07:44:07;37.35;;;16.45;;
72720;SDS011;60835;50.974;10.322;2022-11-20T07:46:34;34.88;;;17.17;;
72720;SDS011;60835;50.974;10.322;2022-11-20T07:49:00;39.50;;;18.10;;
72720;SDS011;60835;50.974;10.322;2022-11-20T07:51:27;37.25;;;17.38;;
72720;SDS011;60835;50.974;10.322;2022-11-20T07:53:55;37.17;;;15.77;;
72720;SDS011;60835;50.974;10.322;2022-11-20T07:56:22;41.05;;;17.58;;
72720;SDS011;60835;50.974;10.322;2022-11-20T07:58:48;45.72;;;17.50;;
72720;SDS011;60835;50.974;10.322;2022-11-20T08:01:18;36.40;;;16.42;;
72720;SDS011;60835;50.974;10.322;2022-11-20T08:03:44;35.95;;;16.38;;
72720;SDS011;60835;50.974;10.322;2022-11-20T08:06:13;37.17;;;17.58;;
72720;SDS011;60835;50.974;10.322;2022-11-20T08:08:41;38.83;;;17.33;;
72720;SDS011;60835;50.974;10.322;2022-11-20T08:11:14;49.53;;;19.77;;
72720;SDS011;60835;50.974;10.322;2022-11-20T08:13:59;44.33;;;18.92;;
72720;SDS011;60835;50.974;10.322;2022-11-20T08:16:44;43.97;;;17.08;;
72720;SDS011;60835;50.974;10.322;2022-11-20T08:19:13;39.20;;;17.75;;
72720;SDS011;60835;50.974;10.322;2022-11-20T08:21:41;43.25;;;17.13;;
72720;SDS011;60835;50.974;10.322;2022-11-20T08:24:08;39.42;;;18.13;;
72720;SDS011;60835;50.974;10.322;2022-11-20T08:26:35;41.03;;;18.33;;
72720;SDS011;60835;50.974;10.322;2022-11-20T08:29:03;43.67;;;18.02;;
72720;SDS011;60835;50.974;10.322;2022-11-20T08:31:30;44.72;;;19.75;;
72720;SDS011;60835;50.974;10.322;2022-11-20T08:33:57;41.92;;;18.98;;
72720;SDS011;60835;50.974;10.322;2022-11-20T08:36:24;42.30;;;18.95;;
72720;SDS011;60835;50.974;10.322;2022-11-20T08:38:52;50.63;;;19.70;;
72720;SDS011;60835;50.974;10.322;2022-11-20T08:41:20;47.55;;;19.17;;
72720;SDS011;60835;50.974;10.322;2022-11-20T08:43:59;45.72;;;20.17;;
72720;SDS011;60835;50.974;10.322;2022-11-20T08:46:34;47.85;;;20.55;;
72720;SDS011;60835;50.974;10.322;2022-11-20T08:49:07;54.22;;;20.73;;
72720;SDS011;60835;50.974;10.322;2022-11-20T08:51:35;45.30;;;19.35;;
72720;SDS011;60835;50.974;10.322;2022-11-20T08:54:02;43.10;;;19.25;;
72720;SDS011;60835;50.974;10.322;2022-11-20T08:56:29;47.35;;;19.25;;
72720;SDS011;60835;50.974;10.322;2022-11-20T08:58:56;36.33;;;17.88;;
72720;SDS011;60835;50.974;10.322;2022-11-20T09:01:43;42.35;;;19.05;;
72720;SDS011;60835;50.974;10.322;2022-11-20T09:04:09;44.22;;;19.52;;
72720;SDS011;60835;50.974;10.322;2022-11-20T09:06:37;45.72;;;18.73;;
72720;SDS011;60835;50.974;10.322;2022-11-20T09:09:04;42.15;;;19.33;;
72720;SDS011;60835;50.974;10.322;2022-11-20T09:11:32;47.05;;;19.77;;
72720;SDS011;60835;50.974;10.322;2022-11-20T09:13:59;43.78;;;19.80;;
72720;SDS011;60835;50.974;10.322;2022-11-20T09:16:26;51.90;;;22.00;;
72720;SDS011;60835;50.974;10.322;2022-11-20T09:18:52;49.10;;;20.38;;
72720;SDS011;60835;50.974;10.322;2022-11-20T09:21:38;48.05;;;20.15;;
72720;SDS011;60835;50.974;10.322;2022-11-20T09:24:05;48.60;;;20.00;;
72720;SDS011;60835;50.974;10.322;2022-11-20T09:26:31;47.22;;;21.60;;
72720;SDS011;60835;50.974;10.322;2022-11-20T09:28:58;52.22;;;22.48;;
72720;SDS011;60835;50.974;10.322;2022-11-20T09:31:24;52.95;;;22.58;;
72720;SDS011;60835;50.974;10.322;2022-11-20T09:33:52;47.85;;;21.00;;
72720;SDS011;60835;50.974;10.322;2022-11-20T09:36:18;47.30;;;22.15;;
72720;SDS011;60835;50.974;10.322;2022-11-20T09:38:45;51.92;;;22.80;;
72720;SDS011;60835;50.974;10.322;2022-11-20T09:55:38;49.53;;;20.10;;
72720;SDS011;60835;50.974;10.322;2022-11-20T09:58:06;45.92;;;19.42;;
72720;SDS011;60835;50.974;10.322;2022-11-20T10:00:36;46.60;;;20.02;;
72720;SDS011;60835;50.974;10.322;2022-11-20T10:03:06;41.65;;;19.80;;
72720;SDS011;60835;50.974;10.322;2022-11-20T10:05:42;42.40;;;17.80;;
72720;SDS011;60835;50.974;10.322;2022-11-20T10:19:19;43.90;;;19.17;;
72720;SDS011;60835;50.974;10.322;2022-11-20T10:30:18;38.65;;;17.13;;
72720;SDS011;60835;50.974;10.322;2022-11-20T10:32:54;34.23;;;14.50;;
72720;SDS011;60835;50.974;10.322;2022-11-20T10:38:16;33.90;;;15.02;;
72720;SDS011;60835;50.974;10.322;2022-11-20T10:40:52;28.60;;;13.02;;
72720;SDS011;60835;50.974;10.322;2022-11-20T10:43:41;28.08;;;13.65;;
72720;SDS011;60835;50.974;10.322;2022-11-20T10:46:15;27.40;;;13.60;;
72720;SDS011;60835;50.974;10.322;2022-11-20T10:48:44;28.55;;;12.63;;
72720;SDS011;60835;50.974;10.322;2022-11-20T10:56:54;30.55;;;14.32;;
72720;SDS011;60835;50.974;10.322;2022-11-20T10:59:29;32.10;;;15.40;;
72720;SDS011;60835;50.974;10.322;2022-11-20T11:02:21;33.45;;;14.98;;
72720;SDS011;60835;50.974;10.322;2022-11-20T11:04:49;35.42;;;16.35;;
72720;SDS011;60835;50.974;10.322;2022-11-20T11:09:54;33.47;;;15.90;;
72720;SDS011;60835;50.974;10.322;2022-11-20T11:12:22;32.67;;;15.63;;
72720;SDS011;60835;50.974;10.322;2022-11-20T11:14:52;33.72;;;15.63;;
72720;SDS011;60835;50.974;10.322;2022-11-20T11:17:21;32.40;;;15.10;;
72720;SDS011;60835;50.974;10.322;2022-11-20T11:20:00;35.53;;;17.48;;
72720;SDS011;60835;50.974;10.322;2022-11-20T11:24:54;38.03;;;16.85;;
72720;SDS011;60835;50.974;10.322;2022-11-20T11:27:21;38.10;;;17.85;;
72720;SDS011;60835;50.974;10.322;2022-11-20T11:29:48;39.85;;;17.15;;
72720;SDS011;60835;50.974;10.322;2022-11-20T11:32:17;32.92;;;15.85;;
72720;SDS011;60835;50.974;10.322;2022-11-20T11:35:02;38.15;;;16.20;;
72720;SDS011;60835;50.974;10.322;2022-11-20T11:37:34;36.80;;;15.30;;
72720;SDS011;60835;50.974;10.322;2022-11-20T11:40:03;39.15;;;17.00;;
72720;SDS011;60835;50.974;10.322;2022-11-20T11:42:52;43.67;;;18.92;;
72720;SDS011;60835;50.974;10.322;2022-11-20T11:45:22;38.80;;;17.90;;
72720;SDS011;60835;50.974;10.322;2022-11-20T11:47:50;38.33;;;16.92;;
72720;SDS011;60835;50.974;10.322;2022-11-20T11:50:19;39.97;;;16.67;;
72720;SDS011;60835;50.974;10.322;2022-11-20T11:55:40;41.60;;;18.38;;
72720;SDS011;60835;50.974;10.322;2022-11-20T12:00:54;42.25;;;16.92;;
72720;SDS011;60835;50.974;10.322;2022-11-20T12:03:36;44.55;;;17.17;;
72720;SDS011;60835;50.974;10.322;2022-11-20T12:06:11;43.05;;;19.38;;
72720;SDS011;60835;50.974;10.322;2022-11-20T12:08:44;43.63;;;16.90;;
72720;SDS011;60835;50.974;10.322;2022-11-20T12:14:16;41.72;;;17.42;;
72720;SDS011;60835;50.974;10.322;2022-11-20T12:16:50;47.08;;;18.75;;
72720;SDS011;60835;50.974;10.322;2022-11-20T12:19:19;45.83;;;19.13;;
72720;SDS011;60835;50.974;10.322;2022-11-20T12:21:53;48.47;;;19.83;;
72720;SDS011;60835;50.974;10.322;2022-11-20T12:24:40;49.90;;;20.40;;
72720;SDS011;60835;50.974;10.322;2022-11-20T12:30:09;52.15;;;21.15;;
72720;SDS011;60835;50.974;10.322;2022-11-20T12:35:35;54.67;;;21.02;;
72720;SDS011;60835;50.974;10.322;2022-11-20T12:38:13;54.65;;;21.63;;
72720;SDS011;60835;50.974;10.322;2022-11-20T12:43:30;56.15;;;21.77;;
72720;SDS011;60835;50.974;10.322;2022-11-20T12:51:47;55.22;;;22.15;;
72720;SDS011;60835;50.974;10.322;2022-11-20T12:54:42;56.65;;;22.40;;
72720;SDS011;60835;50.974;10.322;2022-11-20T12:59:51;57.65;;;20.73;;
72720;SDS011;60835;50.974;10.322;2022-11-20T13:05:18;54.30;;;20.80;;
72720;SDS011;60835;50.974;10.322;2022-11-20T13:07:46;44.75;;;19.52;;
72720;SDS011;60835;50.974;10.322;2022-11-20T13:10:20;47.47;;;20.27;;
72720;SDS011;60835;50.974;10.322;2022-11-20T13:12:57;46.35;;;18.77;;
72720;SDS011;60835;50.974;10.322;2022-11-20T13:15:42;46.83;;;18.92;;
72720;SDS011;60835;50.974;10.322;2022-11-20T13:18:17;49.78;;;19.48;;
72720;SDS011;60835;50.974;10.322;2022-11-20T13:20:47;48.63;;;20.58;;
72720;SDS011;60835;50.974;10.322;2022-11-20T13:23:26;55.80;;;21.98;;
72720;SDS011;60835;50.974;10.322;2022-11-20T13:29:03;46.58;;;18.63;;
72720;SDS011;60835;50.974;10.322;2022-11-20T13:31:45;44.42;;;18.27;;
72720;SDS011;60835;50.974;10.322;2022-11-20T13:34:24;46.10;;;19.00;;
72720;SDS011;60835;50.974;10.322;2022-11-20T13:36:56;48.28;;;19.33;;
72720;SDS011;60835;50.974;10.322;2022-11-20T13:39:27;56.25;;;23.45;;
72720;SDS011;60835;50.974;10.322;2022-11-20T13:41:58;42.70;;;17.90;;
72720;SDS011;60835;50.974;10.322;2022-11-20T13:47:26;42.28;;;17.90;;
72720;SDS011;60835;50.974;10.322;2022-11-20T13:49:57;39.20;;;17.08;;
72720;SDS011;60835;50.974;10.322;2022-11-20T14:01:08;33.08;;;14.27;;
72720;SDS011;60835;50.974;10.322;2022-11-20T14:03:45;38.75;;;15.15;;
72720;SDS011;60835;50.974;10.322;2022-11-20T14:06:32;34.33;;;14.77;;
72720;SDS011;60835;50.974;10.322;2022-11-20T14:09:04;40.35;;;16.40;;
72720;SDS011;60835;50.974;10.322;2022-11-20T14:11:31;34.97;;;14.23;;
72720;SDS011;60835;50.974;10.322;2022-11-20T14:16:27;42.15;;;16.38;;
72720;SDS011;60835;50.974;10.322;2022-11-20T14:18:56;36.65;;;15.52;;
72720;SDS011;60835;50.974;10.322;2022-11-20T14:21:24;39.67;;;14.88;;
72720;SDS011;60835;50.974;10.322;2022-11-20T14:24:05;31.60;;;13.38;;
72720;SDS011;60835;50.974;10.322;2022-11-20T14:26:32;33.85;;;14.43;;
72720;SDS011;60835;50.974;10.322;2022-11-20T14:29:00;35.85;;;14.30;;
72720;SDS011;60835;50.974;10.322;2022-11-20T14:31:27;37.33;;;15.13;;
72720;SDS011;60835;50.974;10.322;2022-11-20T14:33:54;33.88;;;14.95;;
72720;SDS011;60835;50.974;10.322;2022-11-20T14:36:22;38.05;;;15.45;;
72720;SDS011;60835;50.974;10.322;2022-11-20T14:38:51;37.08;;;16.20;;
72720;SDS011;60835;50.974;10.322;2022-11-20T14:41:22;39.20;;;16.15;;
72720;SDS011;60835;50.974;10.322;2022-11-20T14:43:57;38.55;;;17.05;;
72720;SDS011;60835;50.974;10.322;2022-11-20T14:46:24;40.33;;;16.98;;
72720;SDS011;60835;50.974;10.322;2022-11-20T14:48:54;38.90;;;16.70;;
72720;SDS011;60835;50.974;10.322;2022-11-20T14:51:28;40.28;;;16.35;;
72720;SDS011;60835;50.974;10.322;2022-11-20T14:56:37;41.90;;;17.52;;
72720;SDS011;60835;50.974;10.322;2022-11-20T14:59:04;44.53;;;18.58;;
72720;SDS011;60835;50.974;10.322;2022-11-20T15:01:32;42.35;;;16.50;;
72720;SDS011;60835;50.974;10.322;2022-11-20T15:04:00;43.03;;;17.02;;
72720;SDS011;60835;50.974;10.322;2022-11-20T15:06:36;39.70;;;17.80;;
72720;SDS011;60835;50.974;10.322;2022-11-20T15:09:04;44.55;;;18.95;;
72720;SDS011;60835;50.974;10.322;2022-11-20T15:11:32;48.22;;;18.90;;
72720;SDS011;60835;50.974;10.322;2022-11-20T15:14:02;44.75;;;19.83;;
72720;SDS011;60835;50.974;10.322;2022-11-20T15:16:30;49.83;;;21.67;;
72720;SDS011;60835;50.974;10.322;2022-11-20T15:18:57;49.80;;;23.33;;
72720;SDS011;60835;50.974;10.322;2022-11-20T15:21:26;50.75;;;22.75;;
72720;SDS011;60835;50.974;10.322;2022-11-20T15:23:52;51.92;;;22.08;;
72720;SDS011;60835;50.974;10.322;2022-11-20T15:26:22;51.03;;;20.95;;
72720;SDS011;60835;50.974;10.322;2022-11-20T15:28:51;53.47;;;22.58;;
72720;SDS011;60835;50.974;10.322;2022-11-20T15:31:19;58.08;;;24.67;;
72720;SDS011;60835;50.974;10.322;2022-11-20T15:33:47;56.38;;;23.52;;
72720;SDS011;60835;50.974;10.322;2022-11-20T15:36:14;60.70;;;24.83;;
72720;SDS011;60835;50.974;10.322;2022-11-20T15:38:40;55.25;;;22.83;;
72720;SDS011;60835;50.974;10.322;2022-11-20T15:41:08;61.08;;;24.80;;
72720;SDS011;60835;50.974;10.322;2022-11-20T15:43:35;56.58;;;23.77;;
72720;SDS011;60835;50.974;10.322;2022-11-20T15:46:03;63.67;;;27.48;;
72720;SDS011;60835;50.974;10.322;2022-11-20T15:48:42;67.07;;;26.75;;
72720;SDS011;60835;50.974;10.322;2022-11-20T15:53:58;65.68;;;26.95;;
72720;SDS011;60835;50.974;10.322;2022-11-20T15:56:25;52.63;;;23.40;;
72720;SDS011;60835;50.974;10.322;2022-11-20T15:58:52;51.65;;;21.50;;
72720;SDS011;60835;50.974;10.322;2022-11-20T16:01:20;53.58;;;20.77;;
72720;SDS011;60835;50.974;10.322;2022-11-20T16:03:48;48.45;;;21.35;;
72720;SDS011;60835;50.974;10.322;2022-11-20T16:06:14;44.33;;;20.40;;